sensor_id;sensor_type;location;lat;lon;timestamp;temperature;humidity
1181;DHT22;579;52.046;8.532;2022-10-22T00:04:08;17.00;1.00
1181;DHT22;579;52.046;8.532;2022-10-22T00:06:35;17.00;1.00
1181;DHT22;579;52.046;8.532;2022-10-22T00:09:02;16.90;1.00
1181;DHT22;579;52.046;8.532;2022-10-22T00:11:28;16.90;1.00
1181;DHT22;579;52.046;8.532;2022-10-22T00:13:55;16.80;1.00
1181;DHT22;579;52.046;8.532;2022-10-22T00:16:23;16.70;1.00
1181;DHT22;579;52.046;8.532;2022-10-22T00:18:50;16.50;1.00
1181;DHT22;579;52.046;8.532;2022-10-22T00:23:54;16.70;1.00
1181;DHT22;579;52.046;8.532;2022-10-22T00:26:21;16.40;1.00
1181;DHT22;579;52.046;8.532;2022-10-22T00:28:48;16.60;1.00
1181;DHT22;579;52.046;8.532;2022-10-22T00:31:14;16.40;1.00
1181;DHT22;579;52.046;8.532;2022-10-22T00:33:41;16.60;1.00
1181;DHT22;579;52.046;8.532;2022-10-22T00:36:08;16.40;1.00
1181;DHT22;579;52.046;8.532;2022-10-22T00:38:35;16.50;1.00
1181;DHT22;579;52.046;8.532;2022-10-22T00:43:55;16.40;1.00
1181;DHT22;579;52.046;8.532;2022-10-22T00:46:22;16.40;1.00
1181;DHT22;579;52.046;8.532;2022-10-22T00:48:49;16.50;1.00
1181;DHT22;579;52.046;8.532;2022-10-22T00:51:17;16.50;1.00
1181;DHT22;579;52.046;8.532;2022-10-22T00:53:47;16.50;1.00
1181;DHT22;579;52.046;8.532;2022-10-22T00:56:18;16.60;1.00
1181;DHT22;579;52.046;8.532;2022-10-22T01:03:08;16.60;1.00
1181;DHT22;579;52.046;8.532;2022-10-22T01:05:40;16.60;1.00
1181;DHT22;579;52.046;8.532;2022-10-22T01:08:13;16.70;1.00
1181;DHT22;579;52.046;8.532;2022-10-22T01:10:54;16.70;1.00
1181;DHT22;579;52.046;8.532;2022-10-22T01:13:34;16.70;1.00
1181;DHT22;579;52.046;8.532;2022-10-22T01:16:10;16.60;1.00
1181;DHT22;579;52.046;8.532;2022-10-22T01:23:18;16.70;1.00
1181;DHT22;579;52.046;8.532;2022-10-22T01:26:01;16.50;1.00
1181;DHT22;579;52.046;8.532;2022-10-22T01:28:52;16.40;1.00
1181;DHT22;579;52.046;8.532;2022-10-22T01:31:27;16.30;1.00
1181;DHT22;579;52.046;8.532;2022-10-22T01:33:56;16.30;1.00
1181;DHT22;579;52.046;8.532;2022-10-22T01:36:25;16.40;1.00
1181;DHT22;579;52.046;8.532;2022-10-22T01:43:38;16.60;1.00
1181;DHT22;579;52.046;8.532;2022-10-22T01:46:05;16.40;1.00
1181;DHT22;579;52.046;8.532;2022-10-22T01:48:38;16.50;1.00
1181;DHT22;579;52.046;8.532;2022-10-22T01:51:23;16.30;1.00
1181;DHT22;579;52.046;8.532;2022-10-22T01:54:00;16.60;1.00
1181;DHT22;579;52.046;8.532;2022-10-22T01:56:43;16.60;1.00
1181;DHT22;579;52.046;8.532;2022-10-22T02:03:11;16.60;1.00
1181;DHT22;579;52.046;8.532;2022-10-22T02:05:43;16.70;1.00
1181;DHT22;579;52.046;8.532;2022-10-22T02:08:13;16.50;1.00
1181;DHT22;579;52.046;8.532;2022-10-22T02:10:44;16.50;1.00
1181;DHT22;579;52.046;8.532;2022-10-22T02:13:14;16.50;1.00
1181;DHT22;579;52.046;8.532;2022-10-22T02:15:44;16.50;1.00
1181;DHT22;579;52.046;8.532;2022-10-22T02:20:54;16.50;1.00
1181;DHT22;579;52.046;8.532;2022-10-22T02:23:22;16.40;1.00
1181;DHT22;579;52.046;8.532;2022-10-22T02:25:53;16.30;1.00
1181;DHT22;579;52.046;8.532;2022-10-22T02:28:28;16.40;1.00
1181;DHT22;579;52.046;8.532;2022-10-22T02:31:03;16.30;1.00
1181;DHT22;579;52.046;8.532;2022-10-22T02:33:37;16.20;1.00
1181;DHT22;579;52.046;8.532;2022-10-22T02:40:39;16.00;1.00
1181;DHT22;579;52.046;8.532;2022-10-22T02:43:06;15.90;1.00
1181;DHT22;579;52.046;8.532;2022-10-22T02:45:33;16.00;1.00
1181;DHT22;579;52.046;8.532;2022-10-22T02:48:00;15.90;1.00
1181;DHT22;579;52.046;8.532;2022-10-22T02:50:27;16.00;1.00
1181;DHT22;579;52.046;8.532;2022-10-22T02:52:53;15.70;1.00
1181;DHT22;579;52.046;8.532;2022-10-22T02:55:20;15.60;1.00
1181;DHT22;579;52.046;8.532;2022-10-22T03:00:28;15.50;1.00
1181;DHT22;579;52.046;8.532;2022-10-22T03:02:55;15.60;1.00
1181;DHT22;579;52.046;8.532;2022-10-22T03:05:22;15.50;1.00
1181;DHT22;579;52.046;8.532;2022-10-22T03:07:48;15.50;1.00
1181;DHT22;579;52.046;8.532;2022-10-22T03:10:15;15.40;1.00
1181;DHT22;579;52.046;8.532;2022-10-22T03:12:42;15.70;1.00
1181;DHT22;579;52.046;8.532;2022-10-22T03:15:09;15.70;1.00
1181;DHT22;579;52.046;8.532;2022-10-22T03:20:16;15.60;1.00
1181;DHT22;579;52.046;8.532;2022-10-22T03:22:43;15.60;1.00
1181;DHT22;579;52.046;8.532;2022-10-22T03:25:13;15.50;1.00
1181;DHT22;579;52.046;8.532;2022-10-22T03:27:42;15.50;1.00
1181;DHT22;579;52.046;8.532;2022-10-22T03:30:10;15.40;1.00
1181;DHT22;579;52.046;8.532;2022-10-22T03:32:37;15.50;1.00
1181;DHT22;579;52.046;8.532;2022-10-22T03:40:09;15.40;1.00
1181;DHT22;579;52.046;8.532;2022-10-22T03:42:38;15.20;1.00
1181;DHT22;579;52.046;8.532;2022-10-22T03:45:06;15.40;1.00
1181;DHT22;579;52.046;8.532;2022-10-22T03:47:33;15.30;1.00
1181;DHT22;579;52.046;8.532;2022-10-22T03:50:01;15.40;1.00
1181;DHT22;579;52.046;8.532;2022-10-22T03:52:34;15.30;1.00
1181;DHT22;579;52.046;8.532;2022-10-22T03:57:49;15.30;1.00
1181;DHT22;579;52.046;8.532;2022-10-22T04:00:16;15.10;1.00
1181;DHT22;579;52.046;8.532;2022-10-22T04:02:43;15.20;1.00
1181;DHT22;579;52.046;8.532;2022-10-22T04:05:10;15.30;1.00
1181;DHT22;579;52.046;8.532;2022-10-22T04:07:37;14.70;1.00
1181;DHT22;579;52.046;8.532;2022-10-22T04:10:04;14.90;1.00
1181;DHT22;579;52.046;8.532;2022-10-22T04:12:31;15.00;1.00
1181;DHT22;579;52.046;8.532;2022-10-22T04:17:37;15.00;1.00
1181;DHT22;579;52.046;8.532;2022-10-22T04:20:05;15.00;1.00
1181;DHT22;579;52.046;8.532;2022-10-22T04:22:32;15.00;1.00
1181;DHT22;579;52.046;8.532;2022-10-22T04:25:00;14.80;1.00
1181;DHT22;579;52.046;8.532;2022-10-22T04:27:29;14.70;1.00
1181;DHT22;579;52.046;8.532;2022-10-22T04:29:56;14.70;1.00
1181;DHT22;579;52.046;8.532;2022-10-22T04:32:22;14.70;1.00
1181;DHT22;579;52.046;8.532;2022-10-22T04:37:29;14.70;1.00
1181;DHT22;579;52.046;8.532;2022-10-22T04:39:57;14.70;1.00
1181;DHT22;579;52.046;8.532;2022-10-22T04:42:24;14.70;1.00
1181;DHT22;579;52.046;8.532;2022-10-22T04:44:50;14.50;1.00
1181;DHT22;579;52.046;8.532;2022-10-22T04:47:17;14.50;1.00
1181;DHT22;579;52.046;8.532;2022-10-22T04:49:44;14.50;1.00
1181;DHT22;579;52.046;8.532;2022-10-22T04:52:11;14.60;1.00
1181;DHT22;579;52.046;8.532;2022-10-22T04:57:18;14.60;1.00
1181;DHT22;579;52.046;8.532;2022-10-22T04:59:45;14.60;1.00
1181;DHT22;579;52.046;8.532;2022-10-22T05:02:11;14.50;1.00
1181;DHT22;579;52.046;8.532;2022-10-22T05:04:38;14.50;1.00
1181;DHT22;579;52.046;8.532;2022-10-22T05:07:06;14.40;1.00
1181;DHT22;579;52.046;8.532;2022-10-22T05:09:32;14.40;1.00
1181;DHT22;579;52.046;8.532;2022-10-22T05:11:59;14.50;1.00
1181;DHT22;579;52.046;8.532;2022-10-22T05:16:39;14.50;1.00
1181;DHT22;579;52.046;8.532;2022-10-22T05:19:06;14.50;1.00
1181;DHT22;579;52.046;8.532;2022-10-22T05:21:33;14.40;1.00
1181;DHT22;579;52.046;8.532;2022-10-22T05:24:00;14.40;1.00
1181;DHT22;579;52.046;8.532;2022-10-22T05:26:28;14.40;1.00
1181;DHT22;579;52.046;8.532;2022-10-22T05:28:55;14.30;1.00
1181;DHT22;579;52.046;8.532;2022-10-22T05:31:23;14.30;1.00
1181;DHT22;579;52.046;8.532;2022-10-22T05:36:28;14.10;1.00
1181;DHT22;579;52.046;8.532;2022-10-22T05:38:56;14.10;1.00
1181;DHT22;579;52.046;8.532;2022-10-22T05:41:24;14.10;1.00
1181;DHT22;579;52.046;8.532;2022-10-22T05:43:54;14.30;1.00
1181;DHT22;579;52.046;8.532;2022-10-22T05:46:23;14.30;1.00
1181;DHT22;579;52.046;8.532;2022-10-22T05:48:51;14.20;1.00
1181;DHT22;579;52.046;8.532;2022-10-22T05:51:20;14.20;1.00
1181;DHT22;579;52.046;8.532;2022-10-22T05:54:10;14.10;1.00
1181;DHT22;579;52.046;8.532;2022-10-22T05:56:41;14.20;1.00
1181;DHT22;579;52.046;8.532;2022-10-22T05:59:09;14.00;1.00
1181;DHT22;579;52.046;8.532;2022-10-22T06:01:37;14.20;1.00
1181;DHT22;579;52.046;8.532;2022-10-22T06:04:06;14.20;1.00
1181;DHT22;579;52.046;8.532;2022-10-22T06:06:37;14.20;1.00
1181;DHT22;579;52.046;8.532;2022-10-22T06:09:10;14.10;1.00
1181;DHT22;579;52.046;8.532;2022-10-22T06:14:19;14.10;1.00
1181;DHT22;579;52.046;8.532;2022-10-22T06:16:46;14.20;1.00
1181;DHT22;579;52.046;8.532;2022-10-22T06:19:15;14.20;1.00
1181;DHT22;579;52.046;8.532;2022-10-22T06:21:43;14.20;1.00
1181;DHT22;579;52.046;8.532;2022-10-22T06:24:11;14.00;1.00
1181;DHT22;579;52.046;8.532;2022-10-22T06:26:38;14.10;1.00
1181;DHT22;579;52.046;8.532;2022-10-22T06:29:06;14.10;1.00
1181;DHT22;579;52.046;8.532;2022-10-22T06:32:01;14.00;1.00
1181;DHT22;579;52.046;8.532;2022-10-22T06:34:28;14.00;1.00
1181;DHT22;579;52.046;8.532;2022-10-22T06:36:54;14.20;1.00
1181;DHT22;579;52.046;8.532;2022-10-22T06:39:21;14.20;1.00
1181;DHT22;579;52.046;8.532;2022-10-22T06:41:48;14.20;1.00
1181;DHT22;579;52.046;8.532;2022-10-22T06:44:15;14.30;1.00
1181;DHT22;579;52.046;8.532;2022-10-22T06:46:43;14.30;1.00
1181;DHT22;579;52.046;8.532;2022-10-22T06:51:49;14.40;1.00
1181;DHT22;579;52.046;8.532;2022-10-22T06:54:16;14.30;1.00
1181;DHT22;579;52.046;8.532;2022-10-22T06:56:43;14.30;1.00
1181;DHT22;579;52.046;8.532;2022-10-22T06:59:10;14.40;1.00
1181;DHT22;579;52.046;8.532;2022-10-22T07:01:37;14.60;1.00
1181;DHT22;579;52.046;8.532;2022-10-22T07:04:04;14.60;1.00
1181;DHT22;579;52.046;8.532;2022-10-22T07:06:33;14.60;1.00
1181;DHT22;579;52.046;8.532;2022-10-22T07:11:41;14.50;1.00
1181;DHT22;579;52.046;8.532;2022-10-22T07:14:09;14.50;1.00
1181;DHT22;579;52.046;8.532;2022-10-22T07:16:36;14.40;1.00
1181;DHT22;579;52.046;8.532;2022-10-22T07:19:04;14.70;1.00
1181;DHT22;579;52.046;8.532;2022-10-22T07:21:31;14.70;1.00
1181;DHT22;579;52.046;8.532;2022-10-22T07:23:58;14.90;1.00
1181;DHT22;579;52.046;8.532;2022-10-22T07:26:27;14.90;1.00
1181;DHT22;579;52.046;8.532;2022-10-22T07:29:09;15.00;1.00
1181;DHT22;579;52.046;8.532;2022-10-22T07:31:36;15.00;1.00
1181;DHT22;579;52.046;8.532;2022-10-22T07:34:03;14.90;1.00
1181;DHT22;579;52.046;8.532;2022-10-22T07:36:29;14.90;1.00
1181;DHT22;579;52.046;8.532;2022-10-22T07:38:57;14.90;1.00
1181;DHT22;579;52.046;8.532;2022-10-22T07:41:25;15.00;1.00
1181;DHT22;579;52.046;8.532;2022-10-22T07:43:52;15.30;1.00
1181;DHT22;579;52.046;8.532;2022-10-22T07:48:59;15.30;1.00
1181;DHT22;579;52.046;8.532;2022-10-22T07:51:26;15.30;1.00
1181;DHT22;579;52.046;8.532;2022-10-22T07:53:53;15.70;1.00
1181;DHT22;579;52.046;8.532;2022-10-22T07:56:20;16.00;1.00
1181;DHT22;579;52.046;8.532;2022-10-22T07:58:46;16.60;1.00
1181;DHT22;579;52.046;8.532;2022-10-22T08:01:13;16.90;1.00
1181;DHT22;579;52.046;8.532;2022-10-22T08:03:39;16.80;1.00
1181;DHT22;579;52.046;8.532;2022-10-22T08:08:41;17.00;1.00
1181;DHT22;579;52.046;8.532;2022-10-22T08:11:11;17.40;1.00
1181;DHT22;579;52.046;8.532;2022-10-22T08:13:37;17.40;1.00
1181;DHT22;579;52.046;8.532;2022-10-22T08:16:04;17.40;1.00
1181;DHT22;579;52.046;8.532;2022-10-22T08:18:31;17.50;1.00
1181;DHT22;579;52.046;8.532;2022-10-22T08:20:58;17.60;1.00
1181;DHT22;579;52.046;8.532;2022-10-22T08:23:25;17.90;1.00
1181;DHT22;579;52.046;8.532;2022-10-22T08:28:31;18.10;1.00
1181;DHT22;579;52.046;8.532;2022-10-22T08:31:01;18.40;1.00
1181;DHT22;579;52.046;8.532;2022-10-22T08:33:28;18.50;1.00
1181;DHT22;579;52.046;8.532;2022-10-22T08:35:55;18.90;1.00
1181;DHT22;579;52.046;8.532;2022-10-22T08:38:22;19.10;1.00
1181;DHT22;579;52.046;8.532;2022-10-22T08:40:53;18.90;1.00
1181;DHT22;579;52.046;8.532;2022-10-22T08:46:20;18.70;1.00
1181;DHT22;579;52.046;8.532;2022-10-22T08:48:57;19.10;1.00
1181;DHT22;579;52.046;8.532;2022-10-22T08:51:30;19.10;1.00
1181;DHT22;579;52.046;8.532;2022-10-22T08:54:18;19.30;1.00
1181;DHT22;579;52.046;8.532;2022-10-22T08:57:03;19.30;1.00
1181;DHT22;579;52.046;8.532;2022-10-22T08:59:56;19.60;1.00
1181;DHT22;579;52.046;8.532;2022-10-22T09:03:45;19.90;1.00
1181;DHT22;579;52.046;8.532;2022-10-22T09:06:18;19.90;1.00
1181;DHT22;579;52.046;8.532;2022-10-22T09:08:47;19.90;1.00
1181;DHT22;579;52.046;8.532;2022-10-22T09:11:27;20.10;1.00
1181;DHT22;579;52.046;8.532;2022-10-22T09:13:56;20.20;1.00
1181;DHT22;579;52.046;8.532;2022-10-22T09:16:32;20.50;1.00
1181;DHT22;579;52.046;8.532;2022-10-22T09:21:59;20.70;1.00
1181;DHT22;579;52.046;8.532;2022-10-22T09:24:35;20.90;1.00
1181;DHT22;579;52.046;8.532;2022-10-22T09:27:10;20.50;1.00
1181;DHT22;579;52.046;8.532;2022-10-22T09:29:38;20.40;1.00
1181;DHT22;579;52.046;8.532;2022-10-22T09:32:05;20.20;1.00
1181;DHT22;579;52.046;8.532;2022-10-22T09:34:32;20.20;1.00
1181;DHT22;579;52.046;8.532;2022-10-22T09:41:38;20.10;1.00
1181;DHT22;579;52.046;8.532;2022-10-22T09:44:06;20.00;1.00
1181;DHT22;579;52.046;8.532;2022-10-22T09:46:37;19.90;1.00
1181;DHT22;579;52.046;8.532;2022-10-22T09:49:11;19.80;1.00
1181;DHT22;579;52.046;8.532;2022-10-22T09:51:49;19.70;1.00
1181;DHT22;579;52.046;8.532;2022-10-22T09:54:19;19.60;1.00
1181;DHT22;579;52.046;8.532;2022-10-22T09:59:38;19.50;1.00
1181;DHT22;579;52.046;8.532;2022-10-22T10:02:10;19.30;1.00
1181;DHT22;579;52.046;8.532;2022-10-22T10:04:41;19.10;1.00
1181;DHT22;579;52.046;8.532;2022-10-22T10:07:15;19.30;1.00
1181;DHT22;579;52.046;8.532;2022-10-22T10:09:43;19.40;1.00
1181;DHT22;579;52.046;8.532;2022-10-22T10:12:29;19.30;1.00
1181;DHT22;579;52.046;8.532;2022-10-22T10:19:51;18.90;1.00
1181;DHT22;579;52.046;8.532;2022-10-22T10:22:36;19.10;1.00
1181;DHT22;579;52.046;8.532;2022-10-22T10:25:31;19.10;1.00
1181;DHT22;579;52.046;8.532;2022-10-22T10:28:13;19.10;1.00
1181;DHT22;579;52.046;8.532;2022-10-22T10:30:53;19.00;1.00
1181;DHT22;579;52.046;8.532;2022-10-22T10:37:16;19.30;1.00
1181;DHT22;579;52.046;8.532;2022-10-22T10:39:57;19.30;1.00
1181;DHT22;579;52.046;8.532;2022-10-22T10:42:35;19.40;1.00
1181;DHT22;579;52.046;8.532;2022-10-22T10:45:15;19.60;1.00
1181;DHT22;579;52.046;8.532;2022-10-22T10:48:00;19.80;1.00
1181;DHT22;579;52.046;8.532;2022-10-22T10:50:42;19.90;1.00
1181;DHT22;579;52.046;8.532;2022-10-22T10:57:19;19.90;1.00
1181;DHT22;579;52.046;8.532;2022-10-22T11:00:04;19.80;1.00
1181;DHT22;579;52.046;8.532;2022-10-22T11:05:43;19.70;1.00
1181;DHT22;579;52.046;8.532;2022-10-22T11:08:15;19.40;1.00
1181;DHT22;579;52.046;8.532;2022-10-22T11:10:46;19.30;1.00
1181;DHT22;579;52.046;8.532;2022-10-22T11:17:43;19.20;1.00
1181;DHT22;579;52.046;8.532;2022-10-22T11:20:15;19.10;1.00
1181;DHT22;579;52.046;8.532;2022-10-22T11:22:46;19.20;1.00
1181;DHT22;579;52.046;8.532;2022-10-22T11:25:19;19.10;1.00
1181;DHT22;579;52.046;8.532;2022-10-22T11:27:51;18.90;1.00
1181;DHT22;579;52.046;8.532;2022-10-22T11:30:21;18.60;1.00
1181;DHT22;579;52.046;8.532;2022-10-22T11:37:38;18.40;1.00
1181;DHT22;579;52.046;8.532;2022-10-22T11:40:07;18.40;1.00
1181;DHT22;579;52.046;8.532;2022-10-22T11:42:44;18.50;1.00
1181;DHT22;579;52.046;8.532;2022-10-22T11:45:27;18.80;1.00
1181;DHT22;579;52.046;8.532;2022-10-22T11:47:58;18.90;1.00
1181;DHT22;579;52.046;8.532;2022-10-22T11:50:46;19.10;1.00
1181;DHT22;579;52.046;8.532;2022-10-22T11:57:36;18.80;1.00
1181;DHT22;579;52.046;8.532;2022-10-22T12:00:26;18.90;1.00
1181;DHT22;579;52.046;8.532;2022-10-22T12:03:13;19.10;1.00
1181;DHT22;579;52.046;8.532;2022-10-22T12:05:42;19.30;1.00
1181;DHT22;579;52.046;8.532;2022-10-22T12:08:24;19.20;1.00
1181;DHT22;579;52.046;8.532;2022-10-22T12:11:03;19.10;1.00
1181;DHT22;579;52.046;8.532;2022-10-22T12:17:41;18.80;1.00
1181;DHT22;579;52.046;8.532;2022-10-22T12:20:12;18.90;1.00
1181;DHT22;579;52.046;8.532;2022-10-22T12:22:39;18.80;1.00
1181;DHT22;579;52.046;8.532;2022-10-22T12:25:16;18.90;1.00
1181;DHT22;579;52.046;8.532;2022-10-22T12:27:50;18.80;1.00
1181;DHT22;579;52.046;8.532;2022-10-22T12:30:19;18.80;1.00
1181;DHT22;579;52.046;8.532;2022-10-22T12:37:37;18.70;1.00
1181;DHT22;579;52.046;8.532;2022-10-22T12:40:16;18.60;1.00
1181;DHT22;579;52.046;8.532;2022-10-22T12:42:47;18.60;1.00
1181;DHT22;579;52.046;8.532;2022-10-22T12:45:15;18.80;1.00
1181;DHT22;579;52.046;8.532;2022-10-22T12:47:45;18.80;1.00
1181;DHT22;579;52.046;8.532;2022-10-22T12:50:17;18.70;1.00
1181;DHT22;579;52.046;8.532;2022-10-22T12:57:11;19.00;1.00
1181;DHT22;579;52.046;8.532;2022-10-22T12:59:41;19.00;1.00
1181;DHT22;579;52.046;8.532;2022-10-22T13:02:16;19.10;1.00
1181;DHT22;579;52.046;8.532;2022-10-22T13:05:14;19.30;1.00
1181;DHT22;579;52.046;8.532;2022-10-22T13:07:46;19.30;1.00
1181;DHT22;579;52.046;8.532;2022-10-22T13:10:18;19.40;1.00
1181;DHT22;579;52.046;8.532;2022-10-22T13:17:08;20.40;1.00
1181;DHT22;579;52.046;8.532;2022-10-22T13:19:44;19.20;1.00
1181;DHT22;579;52.046;8.532;2022-10-22T13:22:28;19.30;1.00
1181;DHT22;579;52.046;8.532;2022-10-22T13:25:04;19.20;1.00
1181;DHT22;579;52.046;8.532;2022-10-22T13:27:45;19.10;1.00
1181;DHT22;579;52.046;8.532;2022-10-22T13:30:19;19.20;1.00
1181;DHT22;579;52.046;8.532;2022-10-22T13:36:41;18.90;1.00
1181;DHT22;579;52.046;8.532;2022-10-22T13:39:12;19.10;1.00
1181;DHT22;579;52.046;8.532;2022-10-22T13:41:42;19.00;1.00
1181;DHT22;579;52.046;8.532;2022-10-22T13:44:09;18.90;1.00
1181;DHT22;579;52.046;8.532;2022-10-22T13:46:36;18.70;1.00
1181;DHT22;579;52.046;8.532;2022-10-22T13:49:12;18.50;1.00
1181;DHT22;579;52.046;8.532;2022-10-22T13:54:24;18.50;1.00
1181;DHT22;579;52.046;8.532;2022-10-22T13:56:51;18.60;1.00
1181;DHT22;579;52.046;8.532;2022-10-22T13:59:18;19.00;1.00
1181;DHT22;579;52.046;8.532;2022-10-22T14:01:45;18.70;1.00
1181;DHT22;579;52.046;8.532;2022-10-22T14:04:13;18.50;1.00
1181;DHT22;579;52.046;8.532;2022-10-22T14:06:39;18.10;1.00
1181;DHT22;579;52.046;8.532;2022-10-22T14:09:12;18.00;1.00
1181;DHT22;579;52.046;8.532;2022-10-22T14:11:55;17.80;1.00
1181;DHT22;579;52.046;8.532;2022-10-22T14:14:22;17.70;1.00
1181;DHT22;579;52.046;8.532;2022-10-22T14:16:49;18.10;1.00
1181;DHT22;579;52.046;8.532;2022-10-22T14:19:16;18.20;1.00
1181;DHT22;579;52.046;8.532;2022-10-22T14:21:44;18.90;1.00
1181;DHT22;579;52.046;8.532;2022-10-22T14:24:10;18.90;1.00
1181;DHT22;579;52.046;8.532;2022-10-22T14:26:37;19.50;1.00
1181;DHT22;579;52.046;8.532;2022-10-22T14:31:42;19.60;1.00
1181;DHT22;579;52.046;8.532;2022-10-22T14:34:09;19.80;1.00
1181;DHT22;579;52.046;8.532;2022-10-22T14:36:36;19.70;1.00
1181;DHT22;579;52.046;8.532;2022-10-22T14:39:03;19.90;1.00
1181;DHT22;579;52.046;8.532;2022-10-22T14:41:29;20.10;1.00
1181;DHT22;579;52.046;8.532;2022-10-22T14:43:56;19.70;1.00
1181;DHT22;579;52.046;8.532;2022-10-22T14:46:24;19.40;1.00
1181;DHT22;579;52.046;8.532;2022-10-22T14:51:12;19.00;1.00
1181;DHT22;579;52.046;8.532;2022-10-22T14:53:40;19.10;1.00
1181;DHT22;579;52.046;8.532;2022-10-22T14:56:09;19.20;1.00
1181;DHT22;579;52.046;8.532;2022-10-22T14:58:37;19.10;1.00
1181;DHT22;579;52.046;8.532;2022-10-22T15:01:04;19.30;1.00
1181;DHT22;579;52.046;8.532;2022-10-22T15:03:31;19.30;1.00
1181;DHT22;579;52.046;8.532;2022-10-22T15:05:58;19.20;1.00
1181;DHT22;579;52.046;8.532;2022-10-22T15:08:39;19.00;1.00
1181;DHT22;579;52.046;8.532;2022-10-22T15:11:07;18.60;1.00
1181;DHT22;579;52.046;8.532;2022-10-22T15:13:35;18.60;1.00
1181;DHT22;579;52.046;8.532;2022-10-22T15:16:05;18.60;1.00
1181;DHT22;579;52.046;8.532;2022-10-22T15:18:32;18.90;1.00
1181;DHT22;579;52.046;8.532;2022-10-22T15:21:00;18.70;1.00
1181;DHT22;579;52.046;8.532;2022-10-22T15:23:29;18.40;1.00
1181;DHT22;579;52.046;8.532;2022-10-22T15:26:08;18.60;1.00
1181;DHT22;579;52.046;8.532;2022-10-22T15:28:36;18.60;1.00
1181;DHT22;579;52.046;8.532;2022-10-22T15:31:04;18.60;1.00
1181;DHT22;579;52.046;8.532;2022-10-22T15:33:31;18.40;1.00
1181;DHT22;579;52.046;8.532;2022-10-22T15:35:59;18.40;1.00
1181;DHT22;579;52.046;8.532;2022-10-22T15:38:34;18.50;1.00
1181;DHT22;579;52.046;8.532;2022-10-22T15:44:08;18.70;1.00
1181;DHT22;579;52.046;8.532;2022-10-22T15:46:40;18.60;1.00
1181;DHT22;579;52.046;8.532;2022-10-22T15:49:07;18.50;1.00
1181;DHT22;579;52.046;8.532;2022-10-22T15:51:33;18.70;1.00
1181;DHT22;579;52.046;8.532;2022-10-22T15:54:00;18.30;1.00
1181;DHT22;579;52.046;8.532;2022-10-22T15:56:28;18.50;1.00
1181;DHT22;579;52.046;8.532;2022-10-22T15:58:58;18.30;1.00
1181;DHT22;579;52.046;8.532;2022-10-22T16:01:51;18.10;1.00
1181;DHT22;579;52.046;8.532;2022-10-22T16:04:18;18.10;1.00
1181;DHT22;579;52.046;8.532;2022-10-22T16:06:47;18.20;1.00
1181;DHT22;579;52.046;8.532;2022-10-22T16:09:17;18.30;1.00
1181;DHT22;579;52.046;8.532;2022-10-22T16:11:45;18.40;1.00
1181;DHT22;579;52.046;8.532;2022-10-22T16:14:13;18.50;1.00
1181;DHT22;579;52.046;8.532;2022-10-22T16:16:45;18.30;1.00
1181;DHT22;579;52.046;8.532;2022-10-22T16:21:54;18.20;1.00
1181;DHT22;579;52.046;8.532;2022-10-22T16:24:21;18.40;1.00
1181;DHT22;579;52.046;8.532;2022-10-22T16:26:48;18.20;1.00
1181;DHT22;579;52.046;8.532;2022-10-22T16:29:17;18.10;1.00
1181;DHT22;579;52.046;8.532;2022-10-22T16:31:43;18.20;1.00
1181;DHT22;579;52.046;8.532;2022-10-22T16:34:10;18.10;1.00
1181;DHT22;579;52.046;8.532;2022-10-22T16:36:37;18.10;1.00
1181;DHT22;579;52.046;8.532;2022-10-22T16:41:41;17.80;1.00
1181;DHT22;579;52.046;8.532;2022-10-22T16:44:09;17.70;1.00
1181;DHT22;579;52.046;8.532;2022-10-22T16:46:36;17.80;1.00
1181;DHT22;579;52.046;8.532;2022-10-22T16:49:04;17.60;1.00
1181;DHT22;579;52.046;8.532;2022-10-22T16:51:31;17.90;1.00
1181;DHT22;579;52.046;8.532;2022-10-22T16:53:57;18.30;1.00
1181;DHT22;579;52.046;8.532;2022-10-22T16:56:25;17.70;1.00
1181;DHT22;579;52.046;8.532;2022-10-22T17:01:30;17.80;1.00
1181;DHT22;579;52.046;8.532;2022-10-22T17:03:58;17.50;1.00
1181;DHT22;579;52.046;8.532;2022-10-22T17:06:25;17.10;1.00
1181;DHT22;579;52.046;8.532;2022-10-22T17:08:52;17.30;1.00
1181;DHT22;579;52.046;8.532;2022-10-22T17:11:21;17.20;1.00
1181;DHT22;579;52.046;8.532;2022-10-22T17:13:51;17.30;1.00
1181;DHT22;579;52.046;8.532;2022-10-22T17:16:21;17.40;1.00
1181;DHT22;579;52.046;8.532;2022-10-22T17:21:29;17.50;1.00
1181;DHT22;579;52.046;8.532;2022-10-22T17:23:57;17.40;1.00
1181;DHT22;579;52.046;8.532;2022-10-22T17:26:25;17.60;1.00
1181;DHT22;579;52.046;8.532;2022-10-22T17:28:52;17.50;1.00
1181;DHT22;579;52.046;8.532;2022-10-22T17:31:21;17.50;1.00
1181;DHT22;579;52.046;8.532;2022-10-22T17:33:51;17.30;1.00
1181;DHT22;579;52.046;8.532;2022-10-22T17:36:21;17.40;1.00
1181;DHT22;579;52.046;8.532;2022-10-22T17:39:16;17.10;1.00
1181;DHT22;579;52.046;8.532;2022-10-22T17:41:43;17.00;1.00
1181;DHT22;579;52.046;8.532;2022-10-22T17:44:11;17.30;1.00
1181;DHT22;579;52.046;8.532;2022-10-22T17:46:38;17.10;1.00
1181;DHT22;579;52.046;8.532;2022-10-22T17:49:17;16.90;1.00
1181;DHT22;579;52.046;8.532;2022-10-22T17:51:46;17.00;1.00
1181;DHT22;579;52.046;8.532;2022-10-22T17:56:56;17.40;1.00
1181;DHT22;579;52.046;8.532;2022-10-22T17:59:22;17.00;1.00
1181;DHT22;579;52.046;8.532;2022-10-22T18:01:49;16.80;1.00
1181;DHT22;579;52.046;8.532;2022-10-22T18:04:18;16.80;1.00
1181;DHT22;579;52.046;8.532;2022-10-22T18:06:45;17.10;1.00
1181;DHT22;579;52.046;8.532;2022-10-22T18:09:13;16.90;1.00
1181;DHT22;579;52.046;8.532;2022-10-22T18:11:42;16.90;1.00
1181;DHT22;579;52.046;8.532;2022-10-22T18:16:45;17.20;1.00
1181;DHT22;579;52.046;8.532;2022-10-22T18:19:15;17.20;1.00
1181;DHT22;579;52.046;8.532;2022-10-22T18:21:43;17.10;1.00
1181;DHT22;579;52.046;8.532;2022-10-22T18:24:09;17.40;1.00
1181;DHT22;579;52.046;8.532;2022-10-22T18:26:37;17.50;1.00
1181;DHT22;579;52.046;8.532;2022-10-22T18:29:04;17.30;1.00
1181;DHT22;579;52.046;8.532;2022-10-22T18:31:31;17.50;1.00
1181;DHT22;579;52.046;8.532;2022-10-22T18:36:39;17.40;1.00
1181;DHT22;579;52.046;8.532;2022-10-22T18:39:07;17.40;1.00
1181;DHT22;579;52.046;8.532;2022-10-22T18:41:33;17.30;1.00
1181;DHT22;579;52.046;8.532;2022-10-22T18:44:02;17.20;1.00
1181;DHT22;579;52.046;8.532;2022-10-22T18:46:32;17.20;1.00
1181;DHT22;579;52.046;8.532;2022-10-22T18:49:03;17.20;1.00
1181;DHT22;579;52.046;8.532;2022-10-22T18:51:32;17.00;1.00
1181;DHT22;579;52.046;8.532;2022-10-22T18:56:39;16.90;1.00
1181;DHT22;579;52.046;8.532;2022-10-22T18:59:05;17.00;1.00
1181;DHT22;579;52.046;8.532;2022-10-22T19:01:32;17.00;1.00
1181;DHT22;579;52.046;8.532;2022-10-22T19:03:59;17.00;1.00
1181;DHT22;579;52.046;8.532;2022-10-22T19:06:28;16.90;1.00
1181;DHT22;579;52.046;8.532;2022-10-22T19:08:57;16.90;1.00
1181;DHT22;579;52.046;8.532;2022-10-22T19:11:24;16.80;1.00
1181;DHT22;579;52.046;8.532;2022-10-22T19:16:28;16.70;1.00
1181;DHT22;579;52.046;8.532;2022-10-22T19:18:59;16.30;1.00
1181;DHT22;579;52.046;8.532;2022-10-22T19:21:27;16.10;1.00
1181;DHT22;579;52.046;8.532;2022-10-22T19:23:54;16.20;1.00
1181;DHT22;579;52.046;8.532;2022-10-22T19:26:21;16.20;1.00
1181;DHT22;579;52.046;8.532;2022-10-22T19:28:50;16.20;1.00
1181;DHT22;579;52.046;8.532;2022-10-22T19:31:19;16.10;1.00
1181;DHT22;579;52.046;8.532;2022-10-22T19:36:30;15.90;1.00
1181;DHT22;579;52.046;8.532;2022-10-22T19:38:57;16.00;1.00
1181;DHT22;579;52.046;8.532;2022-10-22T19:41:25;16.00;1.00
1181;DHT22;579;52.046;8.532;2022-10-22T19:43:54;15.90;1.00
1181;DHT22;579;52.046;8.532;2022-10-22T19:46:23;15.80;1.00
1181;DHT22;579;52.046;8.532;2022-10-22T19:48:51;15.90;1.00
1181;DHT22;579;52.046;8.532;2022-10-22T19:54:03;15.60;1.00